SYRK1: Arkansas R at Syracuse, KS

                                SHEF ID:       SYRK1     ARKANSAS R AT SYRACUSE, KS
STATION TYPE:
Regulating: Stage = 10.00, Flow = 2000

PRECIP STAGE RIV-FLOW BAT-LOAD
in ft cfs volt
Ccp-Rev Ccp-Rev Ccp-Rev Ccp-Rev
(America/Chicago)
08/01 00:00 0.00 5.99 359 12.65
08/01 01:00 0.00 6.01 363 12.65
08/01 02:00 0.00 6.00 361 12.65
08/01 03:00 0.00 6.00 361 12.60
08/01 04:00 0.00 6.00 361 12.60
08/01 05:00 0.00 6.02 365 12.60
08/01 06:00 0.00 6.03 367 12.54
08/01 07:00 0.00 5.96 353 12.54
08/01 08:00 0.00 5.96 353 12.54
08/01 09:00 0.00 5.98 357 12.65
08/01 10:00 0.00 5.98 357 13.12
08/01 11:00 0.00 6.06 373 13.48
08/01 12:00 0.00 5.93 347 13.48
08/01 13:00 0.00 5.97 355 13.36
08/01 14:00 0.00 5.96 353 13.42
08/01 15:00 0.00 5.96 353 13.36
08/01 16:00 0.00 5.98 357 13.30
08/01 17:00 0.00 5.96 353 13.30
08/01 18:00 0.00 5.96 353 13.24
08/01 19:00 0.00 5.98 357 13.07
08/01 20:00 0.00 5.97 355 12.77
08/01 21:00 0.00 5.97 355 12.71
08/01 22:00 0.00 6.02 365 12.71
08/01 23:00 0.00 6.00 361 12.71
Data processed at Fri 02Aug2024 14:07 GMT

Parsing this webpage?

Checkout our new Data API! CWMSDataAPI (CDA)

Timeseries IDs (TSIDs)

TSIDs used from left to right in the data table
SYRA.Precip-Inc.Total.1Hour.1Hour.Ccp-Rev
SYRA.Stage.Inst.1Hour.0.Ccp-Rev
SYRA.Flow.Inst.1Hour.0.Ccp-Rev
SYRA.Volt-Battery Load.Inst.1Hour.0.Ccp-Rev

                            

All information presented herein is the property of the government of the United States of America and may be revised or deleted at any time without prior notice. Dissemination of this information without the expressed written consent of the Public Affairs Office, Tulsa District U.S. Army Corps of Engineers is strictly prohibited. These data are gathered electronically and, as presented, have NOT undergone any form of quality control. These data are NOT guaranteed to be valid or correct.